sensor_id;sensor_type;location;lat;lon;timestamp;pressure;altitude;pressure_sealevel;temperature;humidity
13732;BME280;6937;56.096;12.664;2022-07-31T00:01:07;102132.25;;;17.81;100.00
13732;BME280;6937;56.096;12.664;2022-07-31T00:03:33;102141.63;;;17.88;100.00
13732;BME280;6937;56.096;12.664;2022-07-31T00:05:58;102132.38;;;17.79;100.00
13732;BME280;6937;56.096;12.664;2022-07-31T00:08:23;102129.69;;;17.68;100.00
13732;BME280;6937;56.096;12.664;2022-07-31T00:10:49;102127.25;;;17.65;100.00
13732;BME280;6937;56.096;12.664;2022-07-31T00:13:15;102126.75;;;17.60;100.00
13732;BME280;6937;56.096;12.664;2022-07-31T00:15:40;102139.91;;;17.65;100.00
13732;BME280;6937;56.096;12.664;2022-07-31T00:18:05;102136.31;;;17.64;100.00
13732;BME280;6937;56.096;12.664;2022-07-31T00:20:33;102134.22;;;17.68;100.00
13732;BME280;6937;56.096;12.664;2022-07-31T00:22:58;102132.88;;;17.62;100.00
13732;BME280;6937;56.096;12.664;2022-07-31T00:25:24;102130.63;;;17.56;100.00
13732;BME280;6937;56.096;12.664;2022-07-31T00:27:49;102126.44;;;17.52;100.00
13732;BME280;6937;56.096;12.664;2022-07-31T00:30:15;102134.72;;;17.51;100.00
13732;BME280;6937;56.096;12.664;2022-07-31T00:32:42;102133.94;;;17.49;100.00
13732;BME280;6937;56.096;12.664;2022-07-31T00:35:09;102125.47;;;17.42;100.00
13732;BME280;6937;56.096;12.664;2022-07-31T00:37:35;102122.16;;;17.38;100.00
13732;BME280;6937;56.096;12.664;2022-07-31T00:40:03;102108.03;;;17.35;100.00
13732;BME280;6937;56.096;12.664;2022-07-31T00:42:29;102112.69;;;17.33;100.00
13732;BME280;6937;56.096;12.664;2022-07-31T00:44:55;102112.94;;;17.30;100.00
13732;BME280;6937;56.096;12.664;2022-07-31T00:47:20;102102.00;;;17.20;100.00
13732;BME280;6937;56.096;12.664;2022-07-31T00:49:45;102121.75;;;17.21;100.00
13732;BME280;6937;56.096;12.664;2022-07-31T00:52:11;102127.66;;;17.26;100.00
13732;BME280;6937;56.096;12.664;2022-07-31T00:54:37;102126.06;;;17.23;100.00
13732;BME280;6937;56.096;12.664;2022-07-31T00:57:03;102118.44;;;17.17;100.00
13732;BME280;6937;56.096;12.664;2022-07-31T00:59:29;102109.31;;;17.07;100.00
13732;BME280;6937;56.096;12.664;2022-07-31T01:01:55;102082.91;;;16.88;100.00
13732;BME280;6937;56.096;12.664;2022-07-31T01:04:21;102091.97;;;16.87;100.00
13732;BME280;6937;56.096;12.664;2022-07-31T01:06:47;102066.63;;;16.66;100.00
13732;BME280;6937;56.096;12.664;2022-07-31T01:09:13;102055.56;;;16.58;100.00
13732;BME280;6937;56.096;12.664;2022-07-31T01:11:59;102053.00;;;16.57;100.00
13732;BME280;6937;56.096;12.664;2022-07-31T01:14:39;102055.41;;;16.49;100.00
13732;BME280;6937;56.096;12.664;2022-07-31T01:17:07;102036.94;;;16.42;100.00
13732;BME280;6937;56.096;12.664;2022-07-31T01:19:42;102041.53;;;16.42;100.00
13732;BME280;6937;56.096;12.664;2022-07-31T01:22:28;102048.00;;;16.39;100.00
13732;BME280;6937;56.096;12.664;2022-07-31T01:25:07;102054.59;;;16.35;100.00
13732;BME280;6937;56.096;12.664;2022-07-31T01:30:22;102053.53;;;16.38;100.00
13732;BME280;6937;56.096;12.664;2022-07-31T01:32:50;102062.34;;;16.40;100.00
13732;BME280;6937;56.096;12.664;2022-07-31T01:35:21;102037.06;;;16.30;100.00
13732;BME280;6937;56.096;12.664;2022-07-31T01:37:55;102061.38;;;16.41;100.00
13732;BME280;6937;56.096;12.664;2022-07-31T01:40:27;102053.28;;;16.41;100.00
13732;BME280;6937;56.096;12.664;2022-07-31T01:42:59;102064.56;;;16.46;100.00
13732;BME280;6937;56.096;12.664;2022-07-31T01:45:27;102078.69;;;16.50;100.00
13732;BME280;6937;56.096;12.664;2022-07-31T01:47:54;102081.50;;;16.48;100.00
13732;BME280;6937;56.096;12.664;2022-07-31T01:50:22;102090.34;;;16.50;100.00
13732;BME280;6937;56.096;12.664;2022-07-31T01:52:48;102103.19;;;16.59;100.00
13732;BME280;6937;56.096;12.664;2022-07-31T01:55:15;102104.69;;;16.63;100.00
13732;BME280;6937;56.096;12.664;2022-07-31T01:57:41;102073.38;;;16.61;100.00
13732;BME280;6937;56.096;12.664;2022-07-31T02:00:08;102077.72;;;16.74;100.00
13732;BME280;6937;56.096;12.664;2022-07-31T02:02:35;102060.50;;;16.64;100.00
13732;BME280;6937;56.096;12.664;2022-07-31T02:05:05;102070.09;;;16.68;100.00
13732;BME280;6937;56.096;12.664;2022-07-31T02:07:41;102067.22;;;16.59;100.00
13732;BME280;6937;56.096;12.664;2022-07-31T02:10:13;102093.91;;;16.51;100.00
13732;BME280;6937;56.096;12.664;2022-07-31T02:12:40;102111.22;;;16.48;100.00
13732;BME280;6937;56.096;12.664;2022-07-31T02:15:11;102115.75;;;16.48;100.00
13732;BME280;6937;56.096;12.664;2022-07-31T02:17:38;102119.31;;;16.48;100.00
13732;BME280;6937;56.096;12.664;2022-07-31T02:20:08;102118.34;;;16.49;100.00
13732;BME280;6937;56.096;12.664;2022-07-31T02:22:35;102121.66;;;16.53;100.00
13732;BME280;6937;56.096;12.664;2022-07-31T02:25:03;102112.19;;;16.47;100.00
13732;BME280;6937;56.096;12.664;2022-07-31T02:27:29;102134.41;;;16.51;100.00
13732;BME280;6937;56.096;12.664;2022-07-31T02:29:56;102137.22;;;16.49;100.00
13732;BME280;6937;56.096;12.664;2022-07-31T02:32:24;102147.03;;;16.50;100.00
13732;BME280;6937;56.096;12.664;2022-07-31T02:34:53;102145.09;;;16.52;100.00
13732;BME280;6937;56.096;12.664;2022-07-31T02:37:21;102146.81;;;16.53;100.00
13732;BME280;6937;56.096;12.664;2022-07-31T02:39:49;102146.81;;;16.53;100.00
13732;BME280;6937;56.096;12.664;2022-07-31T02:42:16;102150.47;;;16.52;100.00
13732;BME280;6937;56.096;12.664;2022-07-31T02:44:42;102150.59;;;16.51;100.00
13732;BME280;6937;56.096;12.664;2022-07-31T02:47:08;102151.69;;;16.48;100.00
13732;BME280;6937;56.096;12.664;2022-07-31T02:49:35;102155.34;;;16.47;100.00
13732;BME280;6937;56.096;12.664;2022-07-31T02:52:03;102163.59;;;16.46;100.00
13732;BME280;6937;56.096;12.664;2022-07-31T02:54:30;102163.78;;;16.42;100.00
13732;BME280;6937;56.096;12.664;2022-07-31T02:56:56;102163.16;;;16.39;100.00
13732;BME280;6937;56.096;12.664;2022-07-31T02:59:22;102164.59;;;16.32;100.00
13732;BME280;6937;56.096;12.664;2022-07-31T03:01:48;102176.16;;;16.34;100.00
13732;BME280;6937;56.096;12.664;2022-07-31T03:04:13;102174.19;;;16.36;100.00
13732;BME280;6937;56.096;12.664;2022-07-31T03:06:38;102170.53;;;16.37;100.00
13732;BME280;6937;56.096;12.664;2022-07-31T03:09:04;102175.78;;;16.38;100.00
13732;BME280;6937;56.096;12.664;2022-07-31T03:11:29;102163.53;;;16.34;100.00
13732;BME280;6937;56.096;12.664;2022-07-31T03:13:56;102174.97;;;16.38;100.00
13732;BME280;6937;56.096;12.664;2022-07-31T03:16:23;102190.44;;;16.47;100.00
13732;BME280;6937;56.096;12.664;2022-07-31T03:18:50;102179.16;;;16.42;100.00
13732;BME280;6937;56.096;12.664;2022-07-31T03:21:17;102173.75;;;16.42;100.00
13732;BME280;6937;56.096;12.664;2022-07-31T03:23:44;102167.69;;;16.38;100.00
13732;BME280;6937;56.096;12.664;2022-07-31T03:26:09;102187.69;;;16.36;100.00
13732;BME280;6937;56.096;12.664;2022-07-31T03:28:35;102199.75;;;16.43;100.00
13732;BME280;6937;56.096;12.664;2022-07-31T03:31:01;102199.63;;;16.44;100.00
13732;BME280;6937;56.096;12.664;2022-07-31T03:33:26;102185.94;;;16.35;100.00
13732;BME280;6937;56.096;12.664;2022-07-31T03:35:52;102189.66;;;16.34;100.00
13732;BME280;6937;56.096;12.664;2022-07-31T03:38:18;102162.47;;;16.24;100.00
13732;BME280;6937;56.096;12.664;2022-07-31T03:40:44;102187.06;;;16.32;100.00
13732;BME280;6937;56.096;12.664;2022-07-31T03:43:09;102178.66;;;16.24;100.00
13732;BME280;6937;56.096;12.664;2022-07-31T03:45:37;102188.00;;;16.31;100.00
13732;BME280;6937;56.096;12.664;2022-07-31T03:48:04;102198.59;;;16.34;100.00
13732;BME280;6937;56.096;12.664;2022-07-31T03:50:30;102209.03;;;16.39;100.00
13732;BME280;6937;56.096;12.664;2022-07-31T03:52:56;102208.31;;;16.37;100.00
13732;BME280;6937;56.096;12.664;2022-07-31T03:55:23;102205.47;;;16.38;100.00
13732;BME280;6937;56.096;12.664;2022-07-31T03:57:50;102205.59;;;16.37;100.00
13732;BME280;6937;56.096;12.664;2022-07-31T04:00:15;102214.66;;;16.36;100.00
13732;BME280;6937;56.096;12.664;2022-07-31T04:02:41;102224.03;;;16.43;100.00
13732;BME280;6937;56.096;12.664;2022-07-31T04:05:06;102222.84;;;16.47;100.00
13732;BME280;6937;56.096;12.664;2022-07-31T04:07:32;102220.03;;;16.49;100.00
13732;BME280;6937;56.096;12.664;2022-07-31T04:09:57;102227.91;;;16.52;100.00
13732;BME280;6937;56.096;12.664;2022-07-31T04:12:23;102233.28;;;16.52;100.00
13732;BME280;6937;56.096;12.664;2022-07-31T04:14:48;102227.03;;;16.51;100.00
13732;BME280;6937;56.096;12.664;2022-07-31T04:17:14;102217.09;;;16.52;100.00
13732;BME280;6937;56.096;12.664;2022-07-31T04:19:39;102215.28;;;16.52;100.00
13732;BME280;6937;56.096;12.664;2022-07-31T04:22:05;102208.38;;;16.48;100.00
13732;BME280;6937;56.096;12.664;2022-07-31T04:24:31;102212.81;;;16.49;100.00
13732;BME280;6937;56.096;12.664;2022-07-31T04:26:57;102215.59;;;16.48;100.00
13732;BME280;6937;56.096;12.664;2022-07-31T04:29:23;102214.75;;;16.47;100.00
13732;BME280;6937;56.096;12.664;2022-07-31T04:31:49;102219.91;;;16.50;100.00
13732;BME280;6937;56.096;12.664;2022-07-31T04:34:14;102222.25;;;16.55;100.00
13732;BME280;6937;56.096;12.664;2022-07-31T04:36:39;102234.38;;;16.62;100.00
13732;BME280;6937;56.096;12.664;2022-07-31T04:39:05;102225.53;;;16.60;100.00
13732;BME280;6937;56.096;12.664;2022-07-31T04:41:30;102209.88;;;16.52;100.00
13732;BME280;6937;56.096;12.664;2022-07-31T04:43:56;102232.19;;;16.67;100.00
13732;BME280;6937;56.096;12.664;2022-07-31T04:46:22;102232.59;;;16.73;100.00
13732;BME280;6937;56.096;12.664;2022-07-31T04:48:48;102241.22;;;16.78;100.00
13732;BME280;6937;56.096;12.664;2022-07-31T04:51:23;102206.16;;;16.66;100.00
13732;BME280;6937;56.096;12.664;2022-07-31T04:53:49;102216.34;;;16.62;100.00
13732;BME280;6937;56.096;12.664;2022-07-31T04:56:16;102207.50;;;16.60;100.00
13732;BME280;6937;56.096;12.664;2022-07-31T04:59:05;102229.50;;;16.67;100.00
13732;BME280;6937;56.096;12.664;2022-07-31T05:01:32;102242.75;;;16.70;100.00
13732;BME280;6937;56.096;12.664;2022-07-31T05:03:58;102253.97;;;16.76;100.00
13732;BME280;6937;56.096;12.664;2022-07-31T05:06:34;102251.88;;;16.80;100.00
13732;BME280;6937;56.096;12.664;2022-07-31T05:09:01;102249.03;;;16.70;100.00
13732;BME280;6937;56.096;12.664;2022-07-31T05:11:26;102272.53;;;16.81;100.00
13732;BME280;6937;56.096;12.664;2022-07-31T05:13:56;102278.78;;;16.81;100.00
13732;BME280;6937;56.096;12.664;2022-07-31T05:16:22;102285.94;;;16.82;100.00
13732;BME280;6937;56.096;12.664;2022-07-31T05:18:47;102310.53;;;16.90;100.00
13732;BME280;6937;56.096;12.664;2022-07-31T05:21:13;102314.19;;;16.89;100.00
13732;BME280;6937;56.096;12.664;2022-07-31T05:23:40;102312.47;;;16.88;100.00
13732;BME280;6937;56.096;12.664;2022-07-31T05:26:07;102346.13;;;16.96;100.00
13732;BME280;6937;56.096;12.664;2022-07-31T05:28:32;102354.00;;;16.99;100.00
13732;BME280;6937;56.096;12.664;2022-07-31T05:30:58;102365.34;;;17.04;100.00
13732;BME280;6937;56.096;12.664;2022-07-31T05:33:23;102359.41;;;16.99;100.00
13732;BME280;6937;56.096;12.664;2022-07-31T05:35:48;102371.72;;;17.03;100.00
13732;BME280;6937;56.096;12.664;2022-07-31T05:38:14;102373.47;;;17.04;100.00
13732;BME280;6937;56.096;12.664;2022-07-31T05:40:39;102381.56;;;17.04;100.00
13732;BME280;6937;56.096;12.664;2022-07-31T05:43:05;102386.00;;;17.05;100.00
13732;BME280;6937;56.096;12.664;2022-07-31T05:45:30;102398.53;;;17.06;100.00
13732;BME280;6937;56.096;12.664;2022-07-31T05:47:56;102411.25;;;17.16;100.00
13732;BME280;6937;56.096;12.664;2022-07-31T05:50:21;102422.22;;;17.26;100.00
13732;BME280;6937;56.096;12.664;2022-07-31T05:52:47;102433.25;;;17.35;100.00
13732;BME280;6937;56.096;12.664;2022-07-31T05:55:14;102423.25;;;17.36;100.00
13732;BME280;6937;56.096;12.664;2022-07-31T05:57:40;102421.09;;;17.41;100.00
13732;BME280;6937;56.096;12.664;2022-07-31T06:00:05;102410.28;;;17.41;100.00
13732;BME280;6937;56.096;12.664;2022-07-31T06:02:31;102409.69;;;17.49;100.00
13732;BME280;6937;56.096;12.664;2022-07-31T06:04:56;102415.34;;;17.58;100.00
13732;BME280;6937;56.096;12.664;2022-07-31T06:07:22;102397.13;;;17.60;100.00
13732;BME280;6937;56.096;12.664;2022-07-31T06:09:47;102372.16;;;17.57;100.00
13732;BME280;6937;56.096;12.664;2022-07-31T06:12:12;102336.72;;;17.49;100.00
13732;BME280;6937;56.096;12.664;2022-07-31T06:14:38;102310.16;;;17.43;100.00
13732;BME280;6937;56.096;12.664;2022-07-31T06:17:04;102293.16;;;17.40;100.00
13732;BME280;6937;56.096;12.664;2022-07-31T06:19:31;102275.59;;;17.35;100.00
13732;BME280;6937;56.096;12.664;2022-07-31T06:21:56;102260.06;;;17.26;100.00
13732;BME280;6937;56.096;12.664;2022-07-31T06:24:22;102264.75;;;17.24;100.00
13732;BME280;6937;56.096;12.664;2022-07-31T06:26:47;102290.56;;;17.28;100.00
13732;BME280;6937;56.096;12.664;2022-07-31T06:29:12;102318.09;;;17.33;100.00
13732;BME280;6937;56.096;12.664;2022-07-31T06:31:38;102343.56;;;17.42;100.00
13732;BME280;6937;56.096;12.664;2022-07-31T06:34:03;102383.28;;;17.52;100.00
13732;BME280;6937;56.096;12.664;2022-07-31T06:36:29;102404.38;;;17.60;100.00
13732;BME280;6937;56.096;12.664;2022-07-31T06:38:54;102422.00;;;17.65;100.00
13732;BME280;6937;56.096;12.664;2022-07-31T06:41:19;102441.06;;;17.75;100.00
13732;BME280;6937;56.096;12.664;2022-07-31T06:44:03;102454.53;;;17.88;100.00
13732;BME280;6937;56.096;12.664;2022-07-31T06:46:29;102461.59;;;18.01;100.00
13732;BME280;6937;56.096;12.664;2022-07-31T06:48:55;102453.50;;;18.12;100.00
13732;BME280;6937;56.096;12.664;2022-07-31T06:51:20;102447.25;;;18.23;100.00
13732;BME280;6937;56.096;12.664;2022-07-31T06:53:46;102418.00;;;18.28;100.00
13732;BME280;6937;56.096;12.664;2022-07-31T06:56:11;102388.84;;;18.43;100.00
13732;BME280;6937;56.096;12.664;2022-07-31T06:58:36;102334.19;;;18.49;100.00
13732;BME280;6937;56.096;12.664;2022-07-31T07:01:02;102284.13;;;18.54;100.00
13732;BME280;6937;56.096;12.664;2022-07-31T07:03:27;102224.78;;;18.62;100.00
13732;BME280;6937;56.096;12.664;2022-07-31T07:05:53;102181.53;;;18.72;100.00
13732;BME280;6937;56.096;12.664;2022-07-31T07:08:18;102148.84;;;18.85;100.00
13732;BME280;6937;56.096;12.664;2022-07-31T07:10:43;102127.84;;;18.98;100.00
13732;BME280;6937;56.096;12.664;2022-07-31T07:13:09;102091.16;;;19.14;100.00
13732;BME280;6937;56.096;12.664;2022-07-31T07:15:34;102066.56;;;19.27;100.00
13732;BME280;6937;56.096;12.664;2022-07-31T07:18:00;102052.16;;;19.36;100.00
13732;BME280;6937;56.096;12.664;2022-07-31T07:20:25;102095.75;;;19.44;100.00
13732;BME280;6937;56.096;12.664;2022-07-31T07:22:50;102094.78;;;19.45;100.00
13732;BME280;6937;56.096;12.664;2022-07-31T07:25:16;102086.25;;;19.59;100.00
13732;BME280;6937;56.096;12.664;2022-07-31T07:27:44;102086.75;;;19.74;100.00
13732;BME280;6937;56.096;12.664;2022-07-31T07:30:10;102071.91;;;19.88;100.00
13732;BME280;6937;56.096;12.664;2022-07-31T07:32:35;102038.31;;;19.69;100.00
13732;BME280;6937;56.096;12.664;2022-07-31T07:35:01;102027.16;;;19.63;100.00
13732;BME280;6937;56.096;12.664;2022-07-31T07:37:28;102001.72;;;19.45;100.00
13732;BME280;6937;56.096;12.664;2022-07-31T07:39:53;101980.19;;;19.22;100.00
13732;BME280;6937;56.096;12.664;2022-07-31T07:42:19;101949.94;;;18.87;100.00
13732;BME280;6937;56.096;12.664;2022-07-31T07:44:44;101946.16;;;18.69;100.00
13732;BME280;6937;56.096;12.664;2022-07-31T07:47:09;101964.06;;;18.60;100.00
13732;BME280;6937;56.096;12.664;2022-07-31T07:49:35;101974.78;;;18.62;100.00
13732;BME280;6937;56.096;12.664;2022-07-31T07:52:01;101973.63;;;18.64;100.00
13732;BME280;6937;56.096;12.664;2022-07-31T07:54:27;101971.50;;;18.68;100.00
13732;BME280;6937;56.096;12.664;2022-07-31T07:56:53;101969.66;;;18.68;100.00
13732;BME280;6937;56.096;12.664;2022-07-31T07:59:19;101974.22;;;18.68;100.00
13732;BME280;6937;56.096;12.664;2022-07-31T08:01:44;101979.16;;;18.83;100.00
13732;BME280;6937;56.096;12.664;2022-07-31T08:04:09;101993.38;;;18.97;100.00
13732;BME280;6937;56.096;12.664;2022-07-31T08:06:35;101987.41;;;19.03;100.00
13732;BME280;6937;56.096;12.664;2022-07-31T08:09:01;101987.88;;;19.17;100.00
13732;BME280;6937;56.096;12.664;2022-07-31T08:11:26;102003.06;;;19.39;100.00
13732;BME280;6937;56.096;12.664;2022-07-31T08:13:52;101993.41;;;19.46;100.00
13732;BME280;6937;56.096;12.664;2022-07-31T08:16:21;101992.19;;;19.60;100.00
13732;BME280;6937;56.096;12.664;2022-07-31T08:18:47;101984.34;;;19.76;100.00
13732;BME280;6937;56.096;12.664;2022-07-31T08:21:13;101988.81;;;19.96;100.00
13732;BME280;6937;56.096;12.664;2022-07-31T08:23:39;101977.69;;;20.09;100.00
13732;BME280;6937;56.096;12.664;2022-07-31T08:26:04;101961.38;;;20.18;100.00
13732;BME280;6937;56.096;12.664;2022-07-31T08:28:33;101946.09;;;20.27;100.00
13732;BME280;6937;56.096;12.664;2022-07-31T08:30:58;101909.50;;;20.21;100.00
13732;BME280;6937;56.096;12.664;2022-07-31T08:33:24;101900.66;;;20.29;100.00
13732;BME280;6937;56.096;12.664;2022-07-31T08:35:49;101897.50;;;20.34;100.00
13732;BME280;6937;56.096;12.664;2022-07-31T08:38:18;101875.63;;;20.25;100.00
13732;BME280;6937;56.096;12.664;2022-07-31T08:40:44;101869.09;;;20.09;100.00
13732;BME280;6937;56.096;12.664;2022-07-31T08:43:11;101866.09;;;20.02;100.00
13732;BME280;6937;56.096;12.664;2022-07-31T08:45:39;101870.13;;;19.98;100.00
13732;BME280;6937;56.096;12.664;2022-07-31T08:48:06;101865.25;;;19.92;100.00
13732;BME280;6937;56.096;12.664;2022-07-31T08:50:34;101876.41;;;19.89;100.00
13732;BME280;6937;56.096;12.664;2022-07-31T08:53:02;101883.38;;;19.92;100.00
13732;BME280;6937;56.096;12.664;2022-07-31T08:55:30;101886.50;;;20.06;100.00
13732;BME280;6937;56.096;12.664;2022-07-31T08:57:56;101898.50;;;20.13;100.00
13732;BME280;6937;56.096;12.664;2022-07-31T09:00:21;101878.09;;;20.09;100.00
13732;BME280;6937;56.096;12.664;2022-07-31T09:02:47;101884.06;;;20.22;100.00
13732;BME280;6937;56.096;12.664;2022-07-31T09:05:14;101884.94;;;20.33;100.00
13732;BME280;6937;56.096;12.664;2022-07-31T09:07:41;101867.63;;;20.34;100.00
13732;BME280;6937;56.096;12.664;2022-07-31T09:10:18;101842.59;;;20.40;100.00
13732;BME280;6937;56.096;12.664;2022-07-31T09:12:44;101848.56;;;20.53;100.00
13732;BME280;6937;56.096;12.664;2022-07-31T09:15:24;101829.81;;;20.59;100.00
13732;BME280;6937;56.096;12.664;2022-07-31T09:17:50;101819.78;;;20.69;100.00
13732;BME280;6937;56.096;12.664;2022-07-31T09:20:20;101821.81;;;20.85;100.00
13732;BME280;6937;56.096;12.664;2022-07-31T09:22:47;101806.81;;;20.81;100.00
13732;BME280;6937;56.096;12.664;2022-07-31T09:25:16;101806.81;;;20.81;100.00
13732;BME280;6937;56.096;12.664;2022-07-31T09:27:46;101791.22;;;20.83;100.00
13732;BME280;6937;56.096;12.664;2022-07-31T09:30:12;101771.31;;;20.65;100.00
13732;BME280;6937;56.096;12.664;2022-07-31T09:32:38;101771.34;;;20.55;100.00
13732;BME280;6937;56.096;12.664;2022-07-31T09:35:08;101764.50;;;20.51;100.00
13732;BME280;6937;56.096;12.664;2022-07-31T09:37:34;101773.38;;;20.53;100.00
13732;BME280;6937;56.096;12.664;2022-07-31T09:40:00;101798.03;;;20.69;100.00
13732;BME280;6937;56.096;12.664;2022-07-31T09:42:37;101790.25;;;20.74;100.00
13732;BME280;6937;56.096;12.664;2022-07-31T09:45:15;101780.19;;;20.85;100.00
13732;BME280;6937;56.096;12.664;2022-07-31T09:47:42;101795.47;;;20.86;100.00
13732;BME280;6937;56.096;12.664;2022-07-31T09:50:07;101805.91;;;20.90;100.00
13732;BME280;6937;56.096;12.664;2022-07-31T09:52:33;101789.91;;;20.87;100.00
13732;BME280;6937;56.096;12.664;2022-07-31T09:57:24;101781.25;;;20.74;100.00
13732;BME280;6937;56.096;12.664;2022-07-31T09:59:50;101784.44;;;20.69;100.00
13732;BME280;6937;56.096;12.664;2022-07-31T10:02:17;101818.22;;;20.85;100.00
13732;BME280;6937;56.096;12.664;2022-07-31T10:04:44;101804.16;;;20.71;100.00
13732;BME280;6937;56.096;12.664;2022-07-31T10:07:11;101814.88;;;20.73;100.00
13732;BME280;6937;56.096;12.664;2022-07-31T10:09:38;101837.53;;;20.91;100.00
13732;BME280;6937;56.096;12.664;2022-07-31T10:12:05;101824.38;;;20.87;100.00
13732;BME280;6937;56.096;12.664;2022-07-31T10:14:34;101840.63;;;20.96;100.00
13732;BME280;6937;56.096;12.664;2022-07-31T10:17:04;101818.72;;;20.98;100.00
13732;BME280;6937;56.096;12.664;2022-07-31T10:19:37;101803.03;;;20.92;100.00
13732;BME280;6937;56.096;12.664;2022-07-31T10:22:05;101782.63;;;20.88;100.00
13732;BME280;6937;56.096;12.664;2022-07-31T10:24:42;101798.84;;;20.97;100.00
13732;BME280;6937;56.096;12.664;2022-07-31T10:27:09;101790.63;;;21.07;100.00
13732;BME280;6937;56.096;12.664;2022-07-31T10:29:37;101789.59;;;21.17;100.00
13732;BME280;6937;56.096;12.664;2022-07-31T10:32:08;101760.41;;;21.10;100.00
13732;BME280;6937;56.096;12.664;2022-07-31T10:34:34;101763.84;;;21.12;100.00
13732;BME280;6937;56.096;12.664;2022-07-31T10:37:14;101761.22;;;21.20;100.00
13732;BME280;6937;56.096;12.664;2022-07-31T10:39:48;101765.56;;;21.31;100.00
13732;BME280;6937;56.096;12.664;2022-07-31T10:42:42;101752.16;;;21.29;100.00
13732;BME280;6937;56.096;12.664;2022-07-31T10:45:11;101741.88;;;21.23;100.00
13732;BME280;6937;56.096;12.664;2022-07-31T10:47:39;101765.97;;;21.36;100.00
13732;BME280;6937;56.096;12.664;2022-07-31T10:50:05;101763.25;;;21.36;100.00
13732;BME280;6937;56.096;12.664;2022-07-31T10:52:35;101762.47;;;21.43;100.00
13732;BME280;6937;56.096;12.664;2022-07-31T10:55:13;101754.63;;;21.40;100.00
13732;BME280;6937;56.096;12.664;2022-07-31T10:57:39;101755.31;;;21.42;100.00
13732;BME280;6937;56.096;12.664;2022-07-31T11:00:12;101750.31;;;21.55;100.00
13732;BME280;6937;56.096;12.664;2022-07-31T11:02:38;101751.72;;;21.59;100.00
13732;BME280;6937;56.096;12.664;2022-07-31T11:05:07;101739.00;;;21.68;100.00
13732;BME280;6937;56.096;12.664;2022-07-31T11:07:33;101732.41;;;21.71;100.00
13732;BME280;6937;56.096;12.664;2022-07-31T11:10:17;101729.25;;;21.83;100.00
13732;BME280;6937;56.096;12.664;2022-07-31T11:12:43;101711.91;;;21.84;100.00
13732;BME280;6937;56.096;12.664;2022-07-31T11:15:21;101712.34;;;21.97;100.00
13732;BME280;6937;56.096;12.664;2022-07-31T11:17:47;101711.88;;;22.02;100.00
13732;BME280;6937;56.096;12.664;2022-07-31T11:20:22;101706.50;;;22.18;100.00
13732;BME280;6937;56.096;12.664;2022-07-31T11:23:12;101688.78;;;22.14;100.00
13732;BME280;6937;56.096;12.664;2022-07-31T11:25:40;101679.28;;;22.18;100.00
13732;BME280;6937;56.096;12.664;2022-07-31T11:28:15;101668.09;;;22.29;100.00
13732;BME280;6937;56.096;12.664;2022-07-31T11:31:03;101694.75;;;22.59;100.00
13732;BME280;6937;56.096;12.664;2022-07-31T11:38:33;101683.03;;;22.83;100.00
13732;BME280;6937;56.096;12.664;2022-07-31T11:40:59;101686.94;;;22.73;100.00
13732;BME280;6937;56.096;12.664;2022-07-31T11:43:24;101697.22;;;22.79;100.00
13732;BME280;6937;56.096;12.664;2022-07-31T11:45:52;101690.22;;;22.84;100.00
13732;BME280;6937;56.096;12.664;2022-07-31T11:48:19;101674.88;;;22.75;100.00
13732;BME280;6937;56.096;12.664;2022-07-31T11:50:45;101662.09;;;22.68;100.00
13732;BME280;6937;56.096;12.664;2022-07-31T11:53:11;101676.78;;;22.83;100.00
13732;BME280;6937;56.096;12.664;2022-07-31T11:58:14;101694.50;;;23.11;100.00
13732;BME280;6937;56.096;12.664;2022-07-31T12:00:57;101681.72;;;23.11;100.00
13732;BME280;6937;56.096;12.664;2022-07-31T12:03:33;101673.69;;;23.10;100.00
13732;BME280;6937;56.096;12.664;2022-07-31T12:05:59;101693.16;;;23.23;100.00
13732;BME280;6937;56.096;12.664;2022-07-31T12:08:25;101680.72;;;23.13;100.00
13732;BME280;6937;56.096;12.664;2022-07-31T12:10:52;101692.13;;;23.24;100.00
13732;BME280;6937;56.096;12.664;2022-07-31T12:13:19;101667.72;;;22.98;100.00
13732;BME280;6937;56.096;12.664;2022-07-31T12:15:59;101654.25;;;22.73;100.00
13732;BME280;6937;56.096;12.664;2022-07-31T12:18:27;101652.56;;;22.72;100.00
13732;BME280;6937;56.096;12.664;2022-07-31T12:20:55;101664.50;;;22.87;100.00
13732;BME280;6937;56.096;12.664;2022-07-31T12:23:21;101644.38;;;22.80;100.00
13732;BME280;6937;56.096;12.664;2022-07-31T12:25:47;101678.47;;;23.00;100.00
13732;BME280;6937;56.096;12.664;2022-07-31T12:28:13;101667.72;;;23.06;100.00
13732;BME280;6937;56.096;12.664;2022-07-31T12:30:40;101660.41;;;22.99;100.00
13732;BME280;6937;56.096;12.664;2022-07-31T12:33:06;101664.66;;;23.09;100.00
13732;BME280;6937;56.096;12.664;2022-07-31T12:35:41;101648.66;;;23.06;100.00
13732;BME280;6937;56.096;12.664;2022-07-31T12:38:08;101662.13;;;23.16;100.00
13732;BME280;6937;56.096;12.664;2022-07-31T12:40:34;101643.69;;;23.10;100.00
13732;BME280;6937;56.096;12.664;2022-07-31T12:43:00;101640.47;;;23.06;100.00
13732;BME280;6937;56.096;12.664;2022-07-31T12:45:36;101610.47;;;22.98;100.00
13732;BME280;6937;56.096;12.664;2022-07-31T12:48:05;101628.53;;;23.07;100.00
13732;BME280;6937;56.096;12.664;2022-07-31T12:50:32;101647.13;;;23.20;100.00
13732;BME280;6937;56.096;12.664;2022-07-31T12:53:00;101647.13;;;23.28;100.00
13732;BME280;6937;56.096;12.664;2022-07-31T12:55:27;101652.91;;;23.33;100.00